createdAt,value
2023-03-10T00:00:41.216Z,99451.69
2023-03-10T00:03:09.971Z,99440.94
2023-03-10T00:05:38.388Z,99446.47
2023-03-10T00:08:06.417Z,99450.34
2023-03-10T00:10:34.197Z,99440.44
2023-03-10T00:13:03.810Z,99446.25
2023-03-10T00:15:31.979Z,99444.69
2023-03-10T00:17:59.594Z,99439.22
2023-03-10T00:20:27.519Z,99434.53
2023-03-10T00:22:55.075Z,99425.56
2023-03-10T00:25:23.380Z,99429.91
2023-03-10T00:27:52.737Z,99429.19
2023-03-10T00:30:20.516Z,99438.75
2023-03-10T00:32:50.411Z,99448.53
2023-03-10T00:35:18.165Z,99431.41
2023-03-10T00:37:47.425Z,99424.06
2023-03-10T00:40:16.378Z,99426.78
2023-03-10T00:42:45.010Z,99426.78
2023-03-10T00:45:12.688Z,99423.44
2023-03-10T00:47:43.041Z,99436.81
2023-03-10T00:50:11.400Z,99442.97
2023-03-10T00:52:38.929Z,99446.94
2023-03-10T00:55:07.078Z,99438.22
2023-03-10T00:57:54.764Z,99446.31
2023-03-10T01:00:23.678Z,99434.75
2023-03-10T01:02:53.062Z,99444.44
2023-03-10T01:05:21.488Z,99451.53
2023-03-10T01:07:49.563Z,99446.47
2023-03-10T01:10:18.354Z,99451.19
2023-03-10T01:12:50.398Z,99452.31
2023-03-10T01:15:18.045Z,99443.50
2023-03-10T01:17:45.640Z,99463.41
2023-03-10T01:20:15.330Z,99462.72
2023-03-10T01:22:43.516Z,99461.72
2023-03-10T01:25:20.267Z,99461.34
2023-03-10T01:27:48.710Z,99472.78
2023-03-10T01:30:16.376Z,99471.09
2023-03-10T01:32:45.194Z,99479.50
2023-03-10T01:35:12.938Z,99482.50
2023-03-10T01:37:42.394Z,99484.50
2023-03-10T01:40:16.463Z,99488.66
2023-03-10T01:42:45.013Z,99480.47
2023-03-10T01:45:15.777Z,99482.13
2023-03-10T01:47:43.906Z,99477.44
2023-03-10T01:50:16.546Z,99478.66
2023-03-10T01:52:45.384Z,99486.19
2023-03-10T01:55:19.051Z,99480.06
2023-03-10T01:57:52.763Z,99485.00
2023-03-10T02:00:21.056Z,99482.91
2023-03-10T02:02:53.357Z,99478.03
2023-03-10T02:05:21.580Z,99470.94
2023-03-10T02:07:50.498Z,99466.75
2023-03-10T02:10:18.686Z,99471.56
2023-03-10T02:12:49.649Z,99472.47
2023-03-10T02:15:17.565Z,99482.56
2023-03-10T02:17:46.194Z,99468.06
2023-03-10T02:20:21.737Z,99478.63
2023-03-10T02:22:49.975Z,99481.41
2023-03-10T02:25:51.773Z,99482.44
2023-03-10T02:28:23.255Z,99486.34
2023-03-10T02:30:51.965Z,99477.94
2023-03-10T02:33:24.044Z,99488.66
2023-03-10T02:35:51.853Z,99496.66
2023-03-10T02:38:24.039Z,99497.03
2023-03-10T02:40:52.455Z,99500.63
2023-03-10T02:43:28.226Z,99510.94
2023-03-10T02:46:03.716Z,99503.41
2023-03-10T02:48:34.508Z,99513.75
2023-03-10T02:51:06.592Z,99519.09
2023-03-10T02:53:34.275Z,99517.66
2023-03-10T02:56:01.963Z,99535.28
2023-03-10T02:58:33.437Z,99536.13
2023-03-10T03:01:05.474Z,99532.78
2023-03-10T03:03:37.795Z,99525.25
2023-03-10T03:06:05.749Z,99530.28
2023-03-10T03:08:35.566Z,99527.38
2023-03-10T03:11:05.982Z,99523.63
2023-03-10T03:13:33.982Z,99517.97
2023-03-10T03:16:02.673Z,99527.22
2023-03-10T03:18:31.437Z,99535.59
2023-03-10T03:21:04.410Z,99533.53
2023-03-10T03:23:36.314Z,99534.75
2023-03-10T03:26:05.025Z,99535.81
2023-03-10T03:28:33.414Z,99542.50
2023-03-10T03:31:02.188Z,99549.63
2023-03-10T03:33:38.205Z,99539.78
2023-03-10T03:36:06.242Z,99530.16
2023-03-10T03:38:35.001Z,99524.06
2023-03-10T03:41:03.180Z,99517.34
2023-03-10T03:43:31.462Z,99524.03
2023-03-10T03:46:05.546Z,99523.22
2023-03-10T03:48:35.017Z,99531.38
2023-03-10T03:51:05.379Z,99536.22
2023-03-10T03:53:38.570Z,99541.00
2023-03-10T03:56:06.798Z,99557.13
2023-03-10T03:58:38.573Z,99548.94
2023-03-10T04:01:07.115Z,99552.09
2023-03-10T04:03:41.343Z,99555.03
2023-03-10T04:06:12.438Z,99553.56
2023-03-10T04:08:42.238Z,99551.69
2023-03-10T04:11:10.080Z,99551.91
2023-03-10T04:13:46.365Z,99564.88
2023-03-10T04:16:14.834Z,99566.78
2023-03-10T04:18:45.055Z,99573.28
2023-03-10T04:21:15.184Z,99572.03
2023-03-10T04:23:44.026Z,99569.31
2023-03-10T04:26:15.452Z,99572.41
2023-03-10T04:28:43.102Z,99569.91
2023-03-10T04:31:16.939Z,99572.00
2023-03-10T04:33:50.009Z,99570.53
2023-03-10T04:36:18.713Z,99582.41
2023-03-10T04:38:52.674Z,99586.56
2023-03-10T04:41:23.142Z,99587.63
2023-03-10T04:43:55.980Z,99590.97
2023-03-10T04:46:24.022Z,99590.16
2023-03-10T04:48:53.198Z,99592.88
2023-03-10T04:51:20.784Z,99599.78
2023-03-10T04:53:51.508Z,99598.47
2023-03-10T04:56:21.428Z,99598.19
2023-03-10T04:58:49.398Z,99602.84
2023-03-10T05:01:17.673Z,99597.97
2023-03-10T05:04:03.529Z,99590.84
2023-03-10T05:06:31.766Z,99600.91
2023-03-10T05:09:19.706Z,99602.06
2023-03-10T05:11:48.136Z,99598.81
2023-03-10T05:14:19.485Z,99600.91
2023-03-10T05:16:48.765Z,99606.53
2023-03-10T05:19:17.389Z,99602.59
2023-03-10T05:21:49.381Z,99623.94
2023-03-10T05:24:17.327Z,99615.63
2023-03-10T05:26:45.152Z,99620.06
2023-03-10T05:29:13.585Z,99630.72
2023-03-10T05:31:49.662Z,99628.34
2023-03-10T05:34:25.541Z,99643.53
2023-03-10T05:36:56.581Z,99644.16
2023-03-10T05:39:24.336Z,99659.50
2023-03-10T05:41:55.154Z,99655.72
2023-03-10T05:44:25.910Z,99664.50
2023-03-10T05:46:54.149Z,99674.88
2023-03-10T05:49:22.065Z,99678.44
2023-03-10T05:51:50.050Z,99675.66
2023-03-10T05:54:19.061Z,99661.41
2023-03-10T05:56:47.258Z,99658.94
2023-03-10T05:59:14.939Z,99659.88
2023-03-10T06:01:43.459Z,99662.31
2023-03-10T06:04:11.364Z,99671.34
2023-03-10T06:06:39.954Z,99666.56
2023-03-10T06:09:08.488Z,99673.00
2023-03-10T06:11:41.692Z,99685.56
2023-03-10T06:14:10.332Z,99692.03
2023-03-10T06:16:40.286Z,99698.34
2023-03-10T06:19:11.233Z,99713.44
2023-03-10T06:21:38.821Z,99711.47
2023-03-10T06:24:06.706Z,99707.88
2023-03-10T06:26:34.950Z,99717.06
2023-03-10T06:29:02.601Z,99709.63
2023-03-10T06:31:34.303Z,99714.34
2023-03-10T06:34:04.560Z,99715.84
2023-03-10T06:36:33.050Z,99720.72
2023-03-10T06:39:00.691Z,99721.63
2023-03-10T06:41:28.418Z,99733.47
2023-03-10T06:43:56.159Z,99727.94
2023-03-10T06:46:25.727Z,99733.16
2023-03-10T06:48:54.181Z,99728.00
2023-03-10T06:51:22.449Z,99736.00
2023-03-10T06:53:51.940Z,99726.94
2023-03-10T06:56:20.910Z,99729.06
2023-03-10T06:58:49.853Z,99735.28
2023-03-10T07:01:25.740Z,99737.53
2023-03-10T07:03:53.972Z,99747.50
2023-03-10T07:06:23.857Z,99737.06
2023-03-10T07:09:11.335Z,99738.75
2023-03-10T07:11:39.889Z,99746.56
2023-03-10T07:14:07.993Z,99736.78
2023-03-10T07:16:36.221Z,99750.56
2023-03-10T07:19:03.931Z,99741.22
2023-03-10T07:21:36.402Z,99742.19
2023-03-10T07:24:05.332Z,99743.13
2023-03-10T07:26:33.155Z,99742.72
2023-03-10T07:29:02.749Z,99746.63
2023-03-10T07:31:30.970Z,99749.44
2023-03-10T07:33:59.673Z,99755.28
2023-03-10T07:36:27.758Z,99756.34
2023-03-10T07:38:55.735Z,99761.22
2023-03-10T07:41:23.566Z,99777.50
2023-03-10T07:43:52.840Z,99777.13
2023-03-10T07:46:21.063Z,99783.41
2023-03-10T07:48:48.732Z,99774.03
2023-03-10T07:51:16.323Z,99791.31
2023-03-10T07:53:43.946Z,99796.47
2023-03-10T07:56:13.039Z,99795.19
2023-03-10T07:58:42.063Z,99797.50
2023-03-10T08:01:21.237Z,99791.19
2023-03-10T08:03:49.020Z,99797.59
2023-03-10T08:06:24.193Z,99800.28
2023-03-10T08:08:53.315Z,99807.50
2023-03-10T08:11:21.534Z,99817.22
2023-03-10T08:13:49.302Z,99826.84
2023-03-10T08:16:18.167Z,99827.75
2023-03-10T08:18:45.752Z,99823.56
2023-03-10T08:21:13.269Z,99841.59
2023-03-10T08:23:45.039Z,99846.66
2023-03-10T08:26:14.972Z,99858.31
2023-03-10T08:28:42.763Z,99851.25
2023-03-10T08:31:14.271Z,99849.22
2023-03-10T08:33:43.626Z,99862.44
2023-03-10T08:36:20.088Z,99868.97
2023-03-10T08:38:49.482Z,99862.53
2023-03-10T08:41:16.984Z,99867.06
2023-03-10T08:43:48.505Z,99861.25
2023-03-10T08:46:18.429Z,99855.19
2023-03-10T08:48:46.131Z,99870.69
2023-03-10T08:51:15.965Z,99878.56
2023-03-10T08:53:44.881Z,99866.84
2023-03-10T08:56:12.758Z,99879.13
2023-03-10T08:58:41.020Z,99879.78
2023-03-10T09:01:10.944Z,99874.84
2023-03-10T09:03:39.857Z,99875.59
2023-03-10T09:06:08.594Z,99889.50
2023-03-10T09:08:36.629Z,99900.47
2023-03-10T09:11:04.352Z,99899.84
2023-03-10T09:13:31.948Z,99904.78
2023-03-10T09:16:00.014Z,99890.28
2023-03-10T09:18:29.534Z,99908.81
2023-03-10T09:20:57.393Z,99920.69
2023-03-10T09:23:25.622Z,99927.34
2023-03-10T09:25:53.352Z,99934.56
2023-03-10T09:28:21.222Z,99947.72
2023-03-10T09:30:48.956Z,99934.63
2023-03-10T09:33:19.106Z,99922.63
2023-03-10T09:35:57.496Z,99947.50
2023-03-10T09:38:33.054Z,99942.22
2023-03-10T09:41:19.182Z,99949.56
2023-03-10T09:44:07.846Z,99937.69
2023-03-10T09:46:46.448Z,99934.50
2023-03-10T09:49:30.223Z,99940.97
2023-03-10T09:51:57.856Z,99940.97
2023-03-10T09:54:44.441Z,99936.66
2023-03-10T09:57:17.025Z,99944.56
2023-03-10T09:59:50.830Z,99944.34
2023-03-10T10:02:43.147Z,99946.91
2023-03-10T10:05:20.889Z,99944.59
2023-03-10T10:07:55.458Z,99933.00
2023-03-10T10:10:36.687Z,99953.59
2023-03-10T10:13:13.691Z,99951.94
2023-03-10T10:15:50.080Z,99952.78
2023-03-10T10:18:24.979Z,99945.94
2023-03-10T10:20:59.328Z,99939.78
2023-03-10T10:23:37.732Z,99950.97
2023-03-10T10:26:24.762Z,99952.28
2023-03-10T10:28:59.458Z,99942.38
2023-03-10T10:31:29.142Z,99945.56
2023-03-10T10:34:22.072Z,99966.81
2023-03-10T10:36:52.216Z,99958.50
2023-03-10T10:39:58.831Z,99965.81
2023-03-10T10:42:28.019Z,99969.44
2023-03-10T10:45:05.080Z,99962.16
2023-03-10T10:47:33.712Z,99954.19
2023-03-10T10:50:18.427Z,99959.22
2023-03-10T10:52:51.766Z,99964.59
2023-03-10T10:55:27.476Z,99967.13
2023-03-10T10:58:01.464Z,99970.44
2023-03-10T11:00:33.521Z,99960.16
2023-03-10T11:03:41.184Z,99961.38
2023-03-10T11:06:18.513Z,99976.19
2023-03-10T11:08:53.414Z,99967.41
2023-03-10T11:11:53.637Z,99954.25
2023-03-10T11:14:45.267Z,99965.72
2023-03-10T11:17:31.717Z,99957.53
2023-03-10T11:19:59.388Z,99959.25
2023-03-10T11:22:40.076Z,99962.25
2023-03-10T11:25:15.430Z,99960.44
2023-03-10T11:27:52.710Z,99969.00
2023-03-10T11:30:33.434Z,99965.53
2023-03-10T11:33:23.840Z,99959.88
2023-03-10T11:35:59.808Z,99975.75
2023-03-10T11:38:42.404Z,99974.22
2023-03-10T11:41:22.149Z,99983.06
2023-03-10T11:44:13.728Z,99981.13
2023-03-10T11:46:49.030Z,99964.63
2023-03-10T11:49:16.979Z,99977.22
2023-03-10T11:52:05.543Z,99986.72
2023-03-10T11:54:35.281Z,99973.50
2023-03-10T11:57:22.430Z,99983.56
2023-03-10T11:59:58.083Z,99995.72
2023-03-10T12:02:28.728Z,100001.81
2023-03-10T12:05:06.970Z,99992.56
2023-03-10T12:07:44.498Z,100015.16
2023-03-10T12:10:12.200Z,100015.50
2023-03-10T12:12:47.776Z,100015.19
2023-03-10T12:15:30.573Z,100019.31
2023-03-10T12:18:55.602Z,100025.06
2023-03-10T12:21:36.194Z,100016.13
2023-03-10T12:24:04.338Z,100004.66
2023-03-10T12:26:37.935Z,100009.81
2023-03-10T12:29:20.668Z,100012.91
2023-03-10T12:31:54.024Z,100020.22
2023-03-10T12:34:23.052Z,100025.13
2023-03-10T12:36:54.803Z,100031.84
2023-03-10T12:39:28.365Z,100028.56
2023-03-10T12:41:56.298Z,100031.63
2023-03-10T12:44:43.284Z,100036.81
2023-03-10T12:47:51.499Z,100044.69
2023-03-10T12:50:43.680Z,100050.88
2023-03-10T12:53:11.127Z,100049.50
2023-03-10T12:55:43.693Z,100054.03
2023-03-10T12:58:19.423Z,100045.47
2023-03-10T13:00:50.790Z,100045.16
2023-03-10T13:03:38.590Z,100044.03
2023-03-10T13:06:15.025Z,100048.22
2023-03-10T13:08:46.546Z,100055.78
2023-03-10T13:11:30.285Z,100054.06
2023-03-10T13:13:59.685Z,100053.16
2023-03-10T13:16:27.380Z,100052.63
2023-03-10T13:19:00.661Z,100053.72
2023-03-10T13:21:36.658Z,100058.91
2023-03-10T13:24:36.873Z,100066.78
2023-03-10T13:27:05.383Z,100063.91
2023-03-10T13:29:33.546Z,100059.28
2023-03-10T13:32:01.858Z,100065.00
2023-03-10T13:34:32.620Z,100067.56
2023-03-10T13:37:10.945Z,100067.97
2023-03-10T13:39:39.150Z,100065.13
2023-03-10T13:42:37.139Z,100069.09
2023-03-10T13:45:17.248Z,100067.72
2023-03-10T13:47:44.841Z,100069.19
2023-03-10T13:50:14.789Z,100071.00
2023-03-10T13:52:54.889Z,100073.16
2023-03-10T13:55:22.529Z,100067.50
2023-03-10T13:57:50.438Z,100070.72
2023-03-10T14:00:21.030Z,100059.34
2023-03-10T14:02:49.868Z,100067.13
2023-03-10T14:05:36.084Z,100066.03
2023-03-10T14:08:03.809Z,100074.06
2023-03-10T14:10:31.625Z,100064.63
2023-03-10T14:13:00.373Z,100068.44
2023-03-10T14:15:41.996Z,100070.50
2023-03-10T14:18:34.874Z,100063.34
2023-03-10T14:21:23.450Z,100062.63
2023-03-10T14:23:51.995Z,100074.84
2023-03-10T14:26:19.902Z,100066.66
2023-03-10T14:28:47.683Z,100073.72
2023-03-10T14:31:22.789Z,100069.75
2023-03-10T14:33:51.087Z,100084.97
2023-03-10T14:36:18.865Z,100078.03
2023-03-10T14:38:49.204Z,100076.28
2023-03-10T14:41:17.116Z,100089.31
2023-03-10T14:43:44.744Z,100083.69
2023-03-10T14:46:13.293Z,100099.88
2023-03-10T14:48:42.121Z,100096.75
2023-03-10T14:51:25.665Z,100101.34
2023-03-10T14:54:00.749Z,100096.56
2023-03-10T14:56:33.720Z,100098.25
2023-03-10T14:59:02.726Z,100112.13
2023-03-10T15:01:30.699Z,100113.38
2023-03-10T15:03:58.497Z,100104.34
2023-03-10T15:06:26.093Z,100109.59
2023-03-10T15:08:55.683Z,100102.84
2023-03-10T15:11:36.216Z,100092.69
2023-03-10T15:14:11.064Z,100099.72
2023-03-10T15:16:41.014Z,100096.34
2023-03-10T15:19:22.930Z,100093.34
2023-03-10T15:21:50.617Z,100103.97
2023-03-10T15:24:18.440Z,100113.84
2023-03-10T15:26:46.204Z,100107.50
2023-03-10T15:29:16.201Z,100117.25
2023-03-10T15:31:43.993Z,100110.59
2023-03-10T15:34:11.761Z,100120.19
2023-03-10T15:36:39.358Z,100114.78
2023-03-10T15:39:07.400Z,100129.16
2023-03-10T15:41:38.781Z,100124.69
2023-03-10T15:44:06.934Z,100127.41
2023-03-10T15:46:34.665Z,100135.84
2023-03-10T15:49:03.600Z,100146.94
2023-03-10T15:51:31.384Z,100145.84
2023-03-10T15:53:59.489Z,100149.16
2023-03-10T15:56:27.199Z,100157.25
2023-03-10T15:58:56.083Z,100162.13
2023-03-10T16:01:23.948Z,100164.22
2023-03-10T16:03:51.801Z,100159.84
2023-03-10T16:06:24.784Z,100176.16
2023-03-10T16:08:53.506Z,100182.97
2023-03-10T16:11:22.245Z,100182.97
2023-03-10T16:13:50.418Z,100184.00
2023-03-10T16:16:19.052Z,100182.66
2023-03-10T16:18:47.025Z,100182.13
2023-03-10T16:21:17.752Z,100187.19
2023-03-10T16:23:46.725Z,100191.91
2023-03-10T16:26:19.675Z,100190.50
2023-03-10T16:28:55.302Z,100182.06
2023-03-10T16:31:24.123Z,100185.53
2023-03-10T16:33:52.903Z,100171.66
2023-03-10T16:36:24.807Z,100163.41
2023-03-10T16:38:55.616Z,100161.56
2023-03-10T16:41:23.958Z,100164.34
2023-03-10T16:43:51.914Z,100174.00
2023-03-10T16:46:25.179Z,100175.59
2023-03-10T16:48:55.808Z,100177.47
2023-03-10T16:51:47.002Z,100173.91
2023-03-10T16:54:22.002Z,100176.53
2023-03-10T16:56:51.225Z,100181.38
2023-03-10T16:59:21.778Z,100176.38
2023-03-10T17:01:50.071Z,100168.84
2023-03-10T17:04:18.018Z,100173.63
2023-03-10T17:06:46.745Z,100172.13
2023-03-10T17:09:14.598Z,100180.63
2023-03-10T17:11:54.889Z,100189.88
2023-03-10T17:14:23.246Z,100188.09
2023-03-10T17:16:51.244Z,100188.00
2023-03-10T17:19:20.771Z,100181.75
2023-03-10T17:21:49.243Z,100192.91
2023-03-10T17:24:18.840Z,100194.16
2023-03-10T17:26:46.567Z,100192.63
2023-03-10T17:29:14.290Z,100190.97
2023-03-10T17:31:48.935Z,100194.75
2023-03-10T17:34:16.650Z,100189.00
2023-03-10T17:36:44.852Z,100192.91
2023-03-10T17:39:18.145Z,100197.19
2023-03-10T17:41:46.577Z,100192.16
2023-03-10T17:44:20.086Z,100199.78
2023-03-10T17:46:50.598Z,100195.91
2023-03-10T17:49:20.195Z,100207.28
2023-03-10T17:51:48.086Z,100208.66
2023-03-10T17:54:17.862Z,100214.94
2023-03-10T17:56:45.725Z,100213.72
2023-03-10T17:59:14.452Z,100213.19
2023-03-10T18:01:43.752Z,100212.47
2023-03-10T18:04:11.673Z,100218.75
2023-03-10T18:06:41.416Z,100207.75
2023-03-10T18:09:28.876Z,100214.00
2023-03-10T18:11:59.969Z,100208.94
2023-03-10T18:14:28.214Z,100212.47
2023-03-10T18:16:55.784Z,100215.69
2023-03-10T18:19:23.404Z,100207.34
2023-03-10T18:21:52.568Z,100210.59
2023-03-10T18:24:22.553Z,100206.72
2023-03-10T18:26:50.556Z,100214.72
2023-03-10T18:29:18.424Z,100214.22
2023-03-10T18:31:49.969Z,100215.09
2023-03-10T18:34:20.434Z,100221.75
2023-03-10T18:36:48.014Z,100217.00
2023-03-10T18:39:15.642Z,100213.28
2023-03-10T18:41:43.273Z,100216.81
2023-03-10T18:44:10.803Z,100222.94
2023-03-10T18:46:39.075Z,100217.38
2023-03-10T18:49:07.432Z,100209.59
2023-03-10T18:51:34.993Z,100214.50
2023-03-10T18:54:02.711Z,100210.41
2023-03-10T18:56:37.492Z,100214.47
2023-03-10T18:59:05.132Z,100213.94
2023-03-10T19:01:32.806Z,100220.38
2023-03-10T19:04:00.964Z,100224.75
2023-03-10T19:06:32.770Z,100226.59
2023-03-10T19:09:01.520Z,100215.28
2023-03-10T19:11:35.371Z,100215.44
2023-03-10T19:14:05.568Z,100219.16
2023-03-10T19:16:35.711Z,100216.31
2023-03-10T19:19:10.646Z,100220.56
2023-03-10T19:21:39.406Z,100228.50
2023-03-10T19:24:07.391Z,100217.16
2023-03-10T19:26:35.422Z,100208.16
2023-03-10T19:29:03.017Z,100210.53
2023-03-10T19:31:34.367Z,100212.91
2023-03-10T19:34:02.720Z,100217.78
2023-03-10T19:36:30.326Z,100214.69
2023-03-10T19:38:59.274Z,100211.81
2023-03-10T19:41:27.098Z,100203.53
2023-03-10T19:43:58.062Z,100208.00
2023-03-10T19:46:25.743Z,100201.72
2023-03-10T19:48:53.276Z,100201.41
2023-03-10T19:51:25.648Z,100188.50
2023-03-10T19:53:53.947Z,100193.88
2023-03-10T19:56:21.760Z,100197.41
2023-03-10T19:58:51.423Z,100199.25
2023-03-10T20:01:25.086Z,100202.09
2023-03-10T20:03:54.262Z,100200.22
2023-03-10T20:06:21.919Z,100206.44
2023-03-10T20:08:49.673Z,100206.63
2023-03-10T20:11:19.561Z,100202.88
2023-03-10T20:13:47.388Z,100202.88
2023-03-10T20:16:16.426Z,100206.56
2023-03-10T20:18:46.299Z,100208.41
2023-03-10T20:21:14.156Z,100208.59
2023-03-10T20:23:41.806Z,100198.44
2023-03-10T20:26:10.043Z,100205.91
2023-03-10T20:28:39.469Z,100199.28
2023-03-10T20:31:07.527Z,100204.84
2023-03-10T20:33:35.985Z,100199.09
2023-03-10T20:36:13.951Z,100192.22
2023-03-10T20:38:45.131Z,100191.84
2023-03-10T20:41:13.495Z,100181.03
2023-03-10T20:43:41.640Z,100185.81
2023-03-10T20:46:10.093Z,100188.38
2023-03-10T20:48:38.344Z,100176.00
2023-03-10T20:51:06.328Z,100180.56
2023-03-10T20:53:39.252Z,100174.13
2023-03-10T20:56:08.917Z,100179.50
2023-03-10T20:59:01.913Z,100175.97
2023-03-10T21:01:30.243Z,100173.44
2023-03-10T21:03:58.709Z,100177.97
2023-03-10T21:06:27.012Z,100181.53
2023-03-10T21:09:06.055Z,100183.25
2023-03-10T21:11:34.249Z,100183.38
2023-03-10T21:14:02.029Z,100189.47
2023-03-10T21:16:29.914Z,100179.00
2023-03-10T21:18:58.342Z,100184.88
2023-03-10T21:21:25.948Z,100177.94
2023-03-10T21:23:53.541Z,100173.25
2023-03-10T21:26:21.482Z,100181.34
2023-03-10T21:28:49.413Z,100175.94
2023-03-10T21:31:17.234Z,100171.38
2023-03-10T21:33:45.138Z,100165.66
2023-03-10T21:36:22.983Z,100166.00
2023-03-10T21:38:52.801Z,100164.84
2023-03-10T21:41:25.382Z,100160.66
2023-03-10T21:43:54.158Z,100171.13
2023-03-10T21:46:22.018Z,100154.06
2023-03-10T21:48:49.987Z,100154.25
2023-03-10T21:51:19.350Z,100153.53
2023-03-10T21:53:47.394Z,100152.38
2023-03-10T21:56:17.896Z,100158.25
2023-03-10T21:58:46.037Z,100152.19
2023-03-10T22:01:19.094Z,100155.81
2023-03-10T22:03:46.924Z,100150.44
2023-03-10T22:06:14.885Z,100144.50
2023-03-10T22:08:42.624Z,100149.22
2023-03-10T22:11:12.234Z,100148.84
2023-03-10T22:13:40.965Z,100145.56
2023-03-10T22:16:10.818Z,100153.66
2023-03-10T22:18:41.588Z,100146.53
2023-03-10T22:21:09.126Z,100140.47
2023-03-10T22:23:36.658Z,100143.47
2023-03-10T22:26:04.460Z,100135.31
2023-03-10T22:28:32.431Z,100138.88
2023-03-10T22:31:00.391Z,100135.97
2023-03-10T22:33:28.690Z,100122.13
2023-03-10T22:35:56.335Z,100130.53
2023-03-10T22:38:24.038Z,100126.97
2023-03-10T22:40:51.689Z,100123.44
2023-03-10T22:43:19.561Z,100120.41
2023-03-10T22:45:47.205Z,100116.56
2023-03-10T22:48:14.913Z,100113.31
2023-03-10T22:50:46.913Z,100125.31
2023-03-10T22:53:16.243Z,100118.94
2023-03-10T22:55:46.532Z,100116.13
2023-03-10T22:58:16.402Z,100104.69
2023-03-10T23:00:44.717Z,100102.00
2023-03-10T23:03:14.059Z,100107.09
2023-03-10T23:05:42.080Z,100103.53
2023-03-10T23:08:13.059Z,100097.81
2023-03-10T23:10:41.153Z,100093.94
2023-03-10T23:13:12.440Z,100101.72
2023-03-10T23:15:40.004Z,100096.16
2023-03-10T23:18:08.021Z,100095.97
2023-03-10T23:20:43.837Z,100097.69
2023-03-10T23:23:12.446Z,100091.56
2023-03-10T23:25:41.611Z,100095.31
2023-03-10T23:28:10.877Z,100091.38
2023-03-10T23:30:39.905Z,100088.88
2023-03-10T23:33:07.914Z,100091.19
2023-03-10T23:35:36.490Z,100081.72
2023-03-10T23:38:05.669Z,100073.94
2023-03-10T23:40:35.030Z,100078.50
2023-03-10T23:43:04.382Z,100073.25
2023-03-10T23:45:33.442Z,100070.72
2023-03-10T23:48:01.697Z,100061.59
2023-03-10T23:50:31.246Z,100063.13
2023-03-10T23:52:59.116Z,100061.16
2023-03-10T23:55:28.953Z,100062.69
2023-03-10T23:57:56.711Z,100051.38
